Time;durP1;ratioP1;P1;durP2;ratioP2;P2;SDS_P1;SDS_P2;PMS_P1;PMS_P2;Temp;Humidity;BMP_temperature;BMP_pressure;BME280_temperature;BME280_humidity;BME280_pressure;Samples;Min_cycle;Max_cycle;Signal;HPM_P1;HPM_P2
2022/06/16 00:00:17;;;;;;;5.12;1.87;;;;;;;13.27;100.00;101125.48;1710484;83;20968;-88
2022/06/16 00:02:49;;;;;;;4.10;2.00;;;;;;;13.19;100.00;101118.64;1710500;83;21063;-87
2022/06/16 00:05:23;;;;;;;6.07;2.20;;;;;;;13.14;100.00;101116.72;1710823;83;21082;-87
2022/06/16 00:07:50;;;;;;;6.80;1.77;;;;;;;13.13;100.00;101119.70;1710309;83;21327;-87
2022/06/16 00:10:18;;;;;;;4.70;2.00;;;;;;;13.08;100.00;101125.89;1710318;83;21035;-87
2022/06/16 00:12:47;;;;;;;7.05;2.30;;;;;;;13.02;100.00;101118.83;1710450;83;20960;-87
2022/06/16 00:15:18;;;;;;;6.60;2.00;;;;;;;12.96;100.00;101117.98;1710529;83;21563;-88
2022/06/16 00:17:44;;;;;;;7.53;2.15;;;;;;;12.94;100.00;101127.44;1710439;83;21500;-88
2022/06/16 00:20:11;;;;;;;6.03;1.98;;;;;;;12.89;100.00;101121.48;1710309;83;21133;-88
2022/06/16 00:22:39;;;;;;;4.53;1.90;;;;;;;12.85;100.00;101119.03;1710389;83;21614;-88
2022/06/16 00:25:06;;;;;;;4.85;2.30;;;;;;;12.81;100.00;101119.27;1710515;83;21113;-88
2022/06/16 00:27:33;;;;;;;6.58;1.98;;;;;;;12.78;100.00;101121.14;1736331;82;21016;-87
2022/06/16 00:29:59;;;;;;;5.08;1.92;;;;;;;12.72;100.00;101114.87;1751828;82;21032;-88
2022/06/16 00:32:25;;;;;;;8.15;2.50;;;;;;;12.67;100.00;101113.48;1751671;82;21055;-87
2022/06/16 00:34:51;;;;;;;2.65;2.08;;;;;;;12.62;100.00;101109.42;1751417;82;21437;-88
2022/06/16 00:37:17;;;;;;;8.15;1.82;;;;;;;12.54;100.00;101111.25;1751865;81;20988;-88
2022/06/16 00:39:43;;;;;;;8.30;2.58;;;;;;;12.50;100.00;101117.72;1751856;82;21491;-88
2022/06/16 00:42:20;;;;;;;9.63;2.42;;;;;;;12.47;100.00;101120.95;1751779;82;20968;-88
2022/06/16 00:44:52;;;;;;;4.45;2.25;;;;;;;12.44;100.00;101123.33;1706809;84;21158;-88
2022/06/16 00:47:21;;;;;;;4.72;2.10;;;;;;;12.39;100.00;101124.66;1708497;84;21016;-88
2022/06/16 00:49:51;;;;;;;5.58;2.40;;;;;;;12.32;100.00;101124.86;1708648;84;21111;-87
2022/06/16 00:52:28;;;;;;;4.17;2.12;;;;;;;12.26;100.00;101124.55;1708744;84;21539;-88
2022/06/16 00:55:02;;;;;;;5.30;2.40;;;;;;;12.22;100.00;101126.14;1708639;84;21082;-88
2022/06/16 00:57:44;;;;;;;6.80;2.55;;;;;;;12.19;100.00;101133.41;1705748;84;21175;-88
2022/06/16 01:00:21;;;;;;;4.55;2.35;;;;;;;12.14;100.00;101134.17;1708628;84;21666;-89
2022/06/16 01:02:46;;;;;;;9.85;2.62;;;;;;;12.10;100.00;101134.42;1671818;85;21071;-87
2022/06/16 01:05:12;;;;;;;8.45;2.70;;;;;;;12.06;100.00;101144.12;1671953;85;21519;-88
2022/06/16 01:07:42;;;;;;;6.87;2.65;;;;;;;12.01;100.00;101138.12;1672153;85;20924;-87
2022/06/16 01:10:10;;;;;;;7.33;2.20;;;;;;;11.97;100.00;101144.27;1626044;87;21280;-88
2022/06/16 01:15:57;;;;;;;;;;;;;;;11.90;100.00;101148.54;1640889;87;21024;-89
2022/06/16 01:18:36;;;;;;;6.53;2.52;;;;;;;11.87;100.00;101149.05;1638383;86;20202;-88
2022/06/16 01:21:16;;;;;;;4.42;2.58;;;;;;;11.83;100.00;101149.26;1633819;86;21128;-88
2022/06/16 01:24:05;;;;;;;9.98;3.05;;;;;;;11.76;100.00;101149.44;1600959;88;21083;-88
2022/06/16 01:26:56;;;;;;;7.10;2.50;;;;;;;11.77;100.00;101151.63;1603412;88;21087;-89
2022/06/16 01:29:59;;;;;;;8.40;2.50;;;;;;;11.77;100.00;101147.58;1603438;88;21688;-88
2022/06/16 01:33:00;;;;;;;8.38;2.80;;;;;;;11.73;100.00;101152.64;1559521;91;21146;-89
2022/06/16 01:35:48;;;;;;;6.72;2.70;;;;;;;11.71;100.00;101150.75;1518227;93;21273;-88
2022/06/16 01:38:22;;;;;;;9.53;2.98;;;;;;;11.68;100.00;101154.50;1518048;93;21192;-88
2022/06/16 01:40:56;;;;;;;13.90;2.45;;;;;;;11.65;100.00;101153.62;1515655;93;21087;-88
2022/06/16 01:43:35;;;;;;;10.65;2.60;;;;;;;11.66;100.00;101156.63;1511247;93;21077;-89
2022/06/16 01:46:22;;;;;;;4.83;2.55;;;;;;;11.69;100.00;101156.13;1511489;94;21120;-89
2022/06/16 01:48:54;;;;;;;5.97;2.33;;;;;;;11.68;100.00;101170.16;1510070;93;21617;-89
2022/06/16 01:51:28;;;;;;;17.25;2.90;;;;;;;11.65;100.00;101164.42;1489242;95;21129;-88
2022/06/16 01:54:17;;;;;;;10.78;2.75;;;;;;;11.65;100.00;101163.92;1484336;95;21574;-88
2022/06/16 01:57:00;;;;;;;8.33;2.60;;;;;;;11.68;100.00;101168.81;1488017;95;21058;-89
2022/06/16 01:59:32;;;;;;;6.22;2.60;;;;;;;11.73;100.00;101177.48;1487475;95;21198;-90
2022/06/16 02:02:03;;;;;;;6.62;2.60;;;;;;;11.73;100.00;101171.55;1527436;93;21160;-89
2022/06/16 02:04:40;;;;;;;7.05;2.65;;;;;;;11.76;100.00;101170.23;1528046;93;21333;-88
2022/06/16 02:07:11;;;;;;;7.30;2.72;;;;;;;11.81;100.00;101168.94;1537856;92;21087;-90
2022/06/16 02:09:42;;;;;;;7.55;2.80;;;;;;;11.90;100.00;101176.09;1489013;96;21247;-89
2022/06/16 02:12:55;;;;;;;11.05;2.52;;;;;;;11.96;100.00;101176.42;1529325;93;21098;-89
2022/06/16 02:14:45;;;;;;;4.75;2.65;;;;;;;12.04;100.00;101182.18;1540042;93;21114;-89
2022/06/16 02:17:12;;;;;;;10.32;3.10;;;;;;;12.10;100.00;101184.94;1540156;93;21952;-89
2022/06/16 02:19:39;;;;;;;11.08;3.02;;;;;;;12.19;100.00;101184.22;1539929;93;21543;-89
2022/06/16 02:22:05;;;;;;;5.97;2.55;;;;;;;12.29;100.00;101186.19;1540181;93;21017;-89
2022/06/16 02:24:31;;;;;;;9.20;2.70;;;;;;;12.41;100.00;101181.97;1540101;93;21073;-89
2022/06/16 02:27:00;;;;;;;6.10;2.80;;;;;;;12.50;100.00;101178.55;1540028;93;21034;-89
2022/06/16 02:29:34;;;;;;;6.58;2.42;;;;;;;12.66;100.00;101186.77;1539734;93;21535;-90
2022/06/16 02:32:39;;;;;;;9.23;2.80;;;;;;;12.79;100.00;101191.72;1537844;93;21050;-90
2022/06/16 02:35:10;;;;;;;4.30;2.30;;;;;;;12.90;100.00;101185.86;1540092;92;21534;-90
2022/06/16 02:38:05;;;;;;;12.18;2.45;;;;;;;13.09;100.00;101197.09;1540092;93;21061;-90
2022/06/16 02:41:08;;;;;;;5.87;2.30;;;;;;;13.22;100.00;101188.48;1540240;93;21019;-90
2022/06/16 02:44:14;;;;;;;10.08;3.05;;;;;;;13.46;100.00;101192.95;1539937;93;21066;-89
2022/06/16 02:47:07;;;;;;;7.30;2.20;;;;;;;13.72;100.00;101189.00;1539985;93;21154;-90
2022/06/16 02:49:44;;;;;;;5.85;2.37;;;;;;;14.62;100.00;101190.80;1653850;86;21102;-89
2022/06/16 02:52:21;;;;;;;8.43;2.50;;;;;;;15.67;100.00;101195.41;1654514;86;21141;-89
2022/06/16 02:55:07;;;;;;;7.17;2.55;;;;;;;16.62;100.00;101191.25;1652164;86;21097;-88
2022/06/16 02:57:47;;;;;;;7.67;2.30;;;;;;;17.55;100.00;101191.94;1657221;86;21369;-88
2022/06/16 03:00:19;;;;;;;5.25;2.20;;;;;;;18.13;100.00;101200.70;1628285;88;21487;-88
2022/06/16 03:02:45;;;;;;;8.37;2.20;;;;;;;18.07;100.00;101200.52;1626184;88;21117;-88
2022/06/16 03:05:15;;;;;;;5.40;1.90;;;;;;;17.83;100.00;101192.97;1630267;88;21590;-90
2022/06/16 03:07:43;;;;;;;7.28;1.80;;;;;;;17.72;100.00;101194.98;1683420;85;21047;-90
2022/06/16 03:10:50;;;;;;;5.87;1.80;;;;;;;17.74;100.00;101198.23;1684856;84;21781;-90
2022/06/16 03:12:43;;;;;;;5.00;1.98;;;;;;;17.83;100.00;101205.24;1680955;85;20988;-90
2022/06/16 03:15:10;;;;;;;6.75;1.80;;;;;;;18.22;100.00;101203.58;1684760;85;20885;-90
2022/06/16 03:17:36;;;;;;;4.08;1.90;;;;;;;18.89;100.00;101199.23;1684848;85;21044;-89
2022/06/16 03:20:02;;;;;;;3.72;1.70;;;;;;;19.62;100.00;101202.16;1684777;85;21000;-90
2022/06/16 03:22:28;;;;;;;5.08;1.90;;;;;;;20.43;100.00;101198.97;1684935;85;21807;-90
2022/06/16 03:24:54;;;;;;;3.98;1.65;;;;;;;21.07;100.00;101197.35;1685048;85;20889;-89
2022/06/16 03:27:20;;;;;;;6.83;2.02;;;;;;;21.68;100.00;101195.41;1684785;85;20993;-90
2022/06/16 03:29:46;;;;;;;11.95;1.70;;;;;;;22.42;100.00;101200.77;1684719;85;20988;-90
2022/06/16 03:32:12;;;;;;;3.22;1.57;;;;;;;23.06;100.00;101198.63;1685062;85;21797;-90
2022/06/16 03:34:38;;;;;;;5.60;1.40;;;;;;;23.82;98.94;101204.38;1684804;85;21004;-90
2022/06/16 03:37:04;;;;;;;4.50;1.40;;;;;;;24.72;91.20;101202.39;1684702;85;21734;-91
2022/06/16 03:39:30;;;;;;;4.80;1.25;;;;;;;25.27;84.32;101197.56;1684921;85;21048;-90
2022/06/16 03:41:56;;;;;;;2.33;1.40;;;;;;;25.82;76.92;101198.34;1684829;84;21539;-89
2022/06/16 03:44:22;;;;;;;3.37;1.77;;;;;;;26.15;72.47;101201.46;1684883;85;20913;-91
2022/06/16 03:46:47;;;;;;;7.35;1.98;;;;;;;26.49;72.54;101205.59;1684930;85;21734;-89
2022/06/16 03:49:13;;;;;;;5.87;1.60;;;;;;;26.98;66.05;101198.17;1701503;84;20928;-89
2022/06/16 03:51:39;;;;;;;7.85;1.72;;;;;;;27.24;61.92;101197.07;1708994;84;20955;-90
2022/06/16 03:54:05;;;;;;;4.60;2.05;;;;;;;27.44;59.42;101193.76;1708909;84;20927;-90
2022/06/16 03:56:31;;;;;;;5.40;1.67;;;;;;;27.72;60.28;101195.00;1732651;80;20889;-90
2022/06/16 03:58:57;;;;;;;4.95;2.05;;;;;;;28.29;57.62;101196.79;1779785;80;21898;-90
2022/06/16 04:01:24;;;;;;;6.17;1.80;;;;;;;28.47;52.47;101202.15;1779878;80;20963;-90
2022/06/16 04:03:59;;;;;;;4.60;1.90;;;;;;;28.39;53.53;101195.41;1779788;80;21028;-90
2022/06/16 04:06:27;;;;;;;8.65;2.20;;;;;;;28.84;51.92;101203.59;1779731;80;21058;-90
2022/06/16 04:08:52;;;;;;;5.22;2.05;;;;;;;29.13;50.16;101199.35;1780072;80;21304;-89
2022/06/16 04:13:57;;;;;;;6.72;2.30;;;;;;;29.94;49.88;101203.11;1718265;82;21097;-90
2022/06/16 04:16:23;;;;;;;5.60;2.08;;;;;;;30.39;48.13;101199.92;1718656;82;21059;-90
2022/06/16 04:18:50;;;;;;;5.97;2.08;;;;;;;30.87;47.33;101201.41;1718524;82;20971;-89
2022/06/16 04:21:16;;;;;;;7.70;2.12;;;;;;;31.42;44.85;101197.89;1718535;82;21020;-89
2022/06/16 04:23:42;;;;;;;10.48;2.62;;;;;;;31.89;42.63;101194.16;1718505;82;21083;-88
2022/06/16 04:26:08;;;;;;;6.72;1.98;;;;;;;32.25;41.15;101203.28;1718454;82;21063;-90
2022/06/16 04:28:34;;;;;;;4.47;1.75;;;;;;;32.49;40.95;101202.57;1718651;82;20919;-88
2022/06/16 04:31:00;;;;;;;4.97;2.30;;;;;;;32.78;39.79;101197.83;1718627;82;20892;-91
2022/06/16 04:33:26;;;;;;;5.37;1.95;;;;;;;32.98;39.82;101202.45;1718626;82;20888;-88
2022/06/16 04:35:54;;;;;;;3.40;1.95;;;;;;;33.30;39.37;101203.03;1718672;82;22212;-91
2022/06/16 04:38:20;;;;;;;5.85;2.10;;;;;;;33.65;38.27;101199.97;1718454;82;21579;-89
2022/06/16 04:40:46;;;;;;;4.33;2.35;;;;;;;33.76;38.19;101204.94;1718706;82;20916;-91
2022/06/16 04:43:15;;;;;;;7.53;2.08;;;;;;;34.25;37.79;101205.16;1718612;82;20935;-90
2022/06/16 04:45:42;;;;;;;7.33;1.98;;;;;;;34.65;36.77;101197.33;1718067;82;21098;-91
2022/06/16 04:48:08;;;;;;;6.47;2.20;;;;;;;34.95;36.44;101191.11;1718532;82;21143;-88
2022/06/16 04:50:36;;;;;;;5.22;2.17;;;;;;;34.97;35.33;101192.87;1718574;82;21091;-88
2022/06/16 04:53:02;;;;;;;3.37;1.85;;;;;;;34.96;34.92;101200.48;1718369;82;21046;-90
2022/06/16 04:55:28;;;;;;;4.60;2.02;;;;;;;35.12;34.32;101205.59;1718585;83;21062;-90
2022/06/16 04:57:54;;;;;;;7.35;2.08;;;;;;;35.51;33.97;101196.60;1718611;82;21058;-88
2022/06/16 05:00:21;;;;;;;2.27;1.80;;;;;;;35.71;33.15;101195.59;1718552;82;21127;-90
2022/06/16 05:02:47;;;;;;;7.70;1.98;;;;;;;36.01;32.08;101195.41;1718435;82;21027;-90
2022/06/16 05:05:14;;;;;;;4.08;2.00;;;;;;;36.19;32.00;101204.23;1718915;83;21085;-90
2022/06/16 05:07:40;;;;;;;5.45;1.90;;;;;;;36.33;31.50;101200.62;1718318;82;21456;-89
2022/06/16 05:10:08;;;;;;;2.98;2.00;;;;;;;36.57;31.46;101204.30;1745059;80;21098;-91
2022/06/16 05:12:34;;;;;;;3.42;1.95;;;;;;;36.99;31.16;101209.02;1782037;80;21052;-90
2022/06/16 05:15:00;;;;;;;3.40;1.85;;;;;;;37.33;31.08;101201.04;1782432;80;20940;-88
2022/06/16 05:17:26;;;;;;;5.35;1.98;;;;;;;37.45;29.82;101201.80;1782533;80;21606;-89
2022/06/16 05:19:52;;;;;;;6.72;2.30;;;;;;;37.50;29.85;101206.15;1782207;80;21016;-90
2022/06/16 05:22:18;;;;;;;3.98;1.90;;;;;;;37.68;30.20;101209.42;1782384;80;21052;-89
2022/06/16 05:24:44;;;;;;;3.98;2.25;;;;;;;38.23;29.82;101209.09;1782269;80;21124;-91
2022/06/16 05:27:10;;;;;;;2.62;1.98;;;;;;;38.56;28.71;101209.37;1782292;80;20884;-90
2022/06/16 05:29:37;;;;;;;4.58;1.98;;;;;;;38.74;29.12;101207.52;1782610;80;20972;-90
2022/06/16 05:32:04;;;;;;;6.70;1.95;;;;;;;38.86;28.26;101207.46;1782600;80;20988;-90
2022/06/16 05:34:30;;;;;;;3.75;2.50;;;;;;;39.08;27.73;101211.30;1782471;80;21551;-89
2022/06/16 05:36:56;;;;;;;5.28;2.02;;;;;;;39.06;27.03;101212.97;1782380;80;21145;-90
2022/06/16 05:39:22;;;;;;;4.58;2.12;;;;;;;39.15;27.68;101215.97;1782542;80;21022;-87
2022/06/16 05:41:48;;;;;;;4.30;2.00;;;;;;;39.35;27.14;101208.02;1782665;80;20856;-90
2022/06/16 05:44:14;;;;;;;7.03;2.20;;;;;;;39.51;27.08;101209.39;1782638;80;21483;-90
2022/06/16 05:46:40;;;;;;;2.55;2.08;;;;;;;39.99;26.32;101211.84;1782588;80;20888;-90
2022/06/16 05:49:06;;;;;;;7.42;2.10;;;;;;;40.22;25.59;101209.99;1782698;80;21253;-90
2022/06/16 05:51:33;;;;;;;9.40;2.30;;;;;;;40.27;25.54;101207.99;1782605;80;21023;-89
2022/06/16 05:53:59;;;;;;;2.98;2.12;;;;;;;40.42;26.07;101214.80;1782853;80;21003;-90
2022/06/16 05:56:25;;;;;;;4.20;2.08;;;;;;;40.47;25.40;101218.45;1782948;80;20940;-90
2022/06/16 05:58:51;;;;;;;3.42;2.20;;;;;;;40.93;25.29;101215.38;1782855;80;20935;-90
2022/06/16 06:01:17;;;;;;;2.95;2.17;;;;;;;40.96;24.74;101217.30;1782851;80;21111;-88
2022/06/16 06:03:44;;;;;;;4.55;2.25;;;;;;;40.90;24.91;101216.29;1782865;80;20987;-90
2022/06/16 06:06:10;;;;;;;4.53;2.35;;;;;;;40.91;24.67;101215.81;1782477;80;21491;-90
2022/06/16 06:17:13;;;;;;;7.90;2.47;;;;;;;42.53;23.80;101218.56;1782592;80;28037;-88
2022/06/16 06:19:39;;;;;;;4.85;2.30;;;;;;;42.64;23.24;101212.46;1782941;80;21547;-86
2022/06/16 06:22:16;;;;;;;6.10;2.40;;;;;;;42.52;22.82;101226.92;1782840;80;21015;-91
2022/06/16 06:24:46;;;;;;;4.92;2.67;;;;;;;42.55;22.51;101220.31;1715489;83;21110;-90
2022/06/16 06:27:23;;;;;;;4.80;2.55;;;;;;;42.42;22.14;101217.60;1682743;85;21108;-87
2022/06/16 06:29:50;;;;;;;6.62;2.33;;;;;;;42.25;22.38;101215.46;1682791;85;21009;-88
2022/06/16 06:32:20;;;;;;;7.25;2.10;;;;;;;42.36;22.06;101222.91;1682772;85;20945;-90
2022/06/16 06:34:46;;;;;;;3.65;2.20;;;;;;;42.47;22.05;101222.48;1679737;85;21036;-89
2022/06/16 06:37:15;;;;;;;3.98;2.22;;;;;;;42.58;21.75;101220.80;1682762;85;21493;-89
2022/06/16 06:39:41;;;;;;;3.55;2.17;;;;;;;42.81;21.59;101224.35;1682762;85;21164;-91
2022/06/16 06:42:08;;;;;;;2.90;2.17;;;;;;;42.90;21.69;101225.00;1682700;85;21028;-91
2022/06/16 06:44:34;;;;;;;3.92;2.40;;;;;;;42.96;21.30;101228.16;1682828;85;21453;-87
2022/06/16 06:47:01;;;;;;;4.28;2.85;;;;;;;43.06;20.58;101227.52;1682444;85;21084;-88
2022/06/16 06:49:28;;;;;;;5.17;2.15;;;;;;;43.25;20.61;101226.31;1682770;85;20993;-87
2022/06/16 06:51:54;;;;;;;3.90;2.25;;;;;;;43.18;19.84;101228.03;1682666;85;21101;-86
2022/06/16 06:54:20;;;;;;;4.40;2.30;;;;;;;43.21;19.92;101227.72;1682601;85;21020;-88
2022/06/16 06:56:49;;;;;;;5.50;2.33;;;;;;;43.16;20.32;101225.53;1682503;85;21024;-87
2022/06/16 06:59:19;;;;;;;2.87;2.02;;;;;;;43.51;20.06;101228.84;1682762;85;21064;-88
2022/06/16 07:01:46;;;;;;;2.45;2.25;;;;;;;43.85;19.90;101220.58;1682808;85;20957;-87
2022/06/16 07:04:13;;;;;;;3.12;2.02;;;;;;;43.79;19.95;101218.23;1682731;85;21096;-85
2022/06/16 07:06:40;;;;;;;5.65;2.30;;;;;;;43.64;19.58;101227.27;1682481;85;21075;-88
2022/06/16 07:09:06;;;;;;;2.30;2.10;;;;;;;43.43;19.64;101228.99;1682698;85;21552;-87
2022/06/16 07:11:33;;;;;;;5.53;2.25;;;;;;;43.53;20.01;101227.70;1683805;85;21100;-87
2022/06/16 07:13:59;;;;;;;4.42;2.33;;;;;;;43.81;19.09;101226.29;1687397;85;21012;-87
2022/06/16 07:16:25;;;;;;;5.80;2.60;;;;;;;43.97;19.43;101230.20;1687464;85;21878;-90
2022/06/16 07:18:51;;;;;;;3.47;2.42;;;;;;;44.42;19.20;101219.97;1687131;85;21001;-88
2022/06/16 07:21:17;;;;;;;6.40;2.30;;;;;;;43.65;18.97;101217.47;1700592;83;22210;-88
2022/06/16 07:23:44;;;;;;;4.25;2.30;;;;;;;43.11;19.80;101229.74;1718276;83;20876;-87
2022/06/16 07:26:11;;;;;;;2.25;2.02;;;;;;;43.26;18.97;101220.79;1718099;83;20967;-90
2022/06/16 07:28:37;;;;;;;8.93;1.92;;;;;;;43.17;19.30;101222.84;1718179;83;21891;-88
2022/06/16 07:31:03;;;;;;;7.37;2.10;;;;;;;43.26;18.70;101220.79;1764832;80;21128;-90
2022/06/16 07:33:29;;;;;;;3.05;2.20;;;;;;;43.63;18.74;101215.12;1784868;80;21003;-86
2022/06/16 07:35:59;;;;;;;6.62;1.95;;;;;;;43.69;18.88;101210.37;1784943;80;22050;-88
2022/06/16 07:38:41;;;;;;;;;;;;;;;;;;;;;
2022/06/16 07:44:09;;;;;;;2.42;1.95;;;;;;;44.29;18.03;101214.45;1547884;92;21535;-87
2022/06/16 07:46:47;;;;;;;4.22;2.10;;;;;;;44.38;18.22;101210.81;1479345;95;21077;-90
2022/06/16 07:49:32;;;;;;;;;;;;;;;;;;;;;
2022/06/16 07:54:46;;;;;;;;;;;;;;;;;;;;;
2022/06/16 08:14:18;;;;;;;3.25;1.75;;;;;;;41.28;18.45;101223.27;1277853;112;21228;-91
2022/06/16 08:16:44;;;;;;;1.70;1.57;;;;;;;41.39;18.58;101220.05;1271269;112;21197;-88
2022/06/16 08:19:11;;;;;;;3.02;1.42;;;;;;;41.62;19.07;101227.33;1266838;112;21618;-88
2022/06/16 08:21:38;;;;;;;4.05;1.80;;;;;;;42.08;18.89;101227.65;1265091;113;21211;-89
2022/06/16 08:24:06;;;;;;;3.17;1.50;;;;;;;42.43;18.57;101227.67;1215776;113;21232;-88
2022/06/16 08:26:34;;;;;;;3.25;1.67;;;;;;;42.72;18.30;101227.14;1207275;118;21223;-89
2022/06/16 08:29:00;;;;;;;7.60;1.50;;;;;;;41.94;18.83;101217.02;1277787;107;21312;-87
2022/06/16 08:31:26;;;;;;;2.47;1.62;;;;;;;42.35;19.04;101225.59;1382704;99;21058;-90
2022/06/16 08:33:53;;;;;;;6.90;1.65;;;;;;;42.60;18.60;101231.67;1480100;94;21733;-87
2022/06/16 08:36:20;;;;;;;1.50;1.40;;;;;;;42.81;18.32;101233.64;1531422;92;22418;-89
2022/06/16 08:38:46;;;;;;;1.92;1.50;;;;;;;42.96;17.91;101225.31;1529869;92;21141;-89
2022/06/16 08:41:28;;;;;;;1.37;1.25;;;;;;;43.42;18.39;101228.81;1553931;92;21098;-89
2022/06/16 08:44:19;;;;;;;2.27;1.70;;;;;;;43.95;17.71;101219.34;1529828;93;21627;-87
2022/06/16 08:47:20;;;;;;;3.47;1.98;;;;;;;43.51;17.61;101229.62;1548309;91;21183;-88
2022/06/16 08:50:06;;;;;;;2.22;1.47;;;;;;;43.21;17.79;101229.14;1554046;92;22032;-91
2022/06/16 08:52:59;;;;;;;4.45;1.50;;;;;;;42.32;17.84;101221.64;1553001;92;21073;-87
2022/06/16 08:55:56;;;;;;;3.50;1.60;;;;;;;42.00;18.58;101229.17;1554165;92;21116;-86
2022/06/16 08:58:58;;;;;;;3.83;1.30;;;;;;;41.37;18.40;101222.56;1529136;92;21086;-87
2022/06/16 09:01:38;;;;;;;4.72;1.50;;;;;;;40.62;19.00;101228.10;1581600;89;21065;-88
2022/06/16 09:04:23;;;;;;;5.92;1.90;;;;;;;41.01;19.48;101230.86;1581590;89;23011;-88
2022/06/16 09:07:19;;;;;;;2.08;1.37;;;;;;;41.62;19.82;101227.33;1581444;89;21101;-88
2022/06/16 09:10:26;;;;;;;1.67;1.45;;;;;;;42.48;19.19;101229.73;1581548;89;21568;-89
2022/06/16 09:13:09;;;;;;;4.70;1.30;;;;;;;42.93;17.69;101220.59;1592428;89;21099;-89
2022/06/16 09:16:34;;;;;;;2.52;1.30;;;;;;;42.18;17.98;101220.76;1503949;94;21623;-89
2022/06/16 09:19:17;;;;;;;3.15;1.52;;;;;;;41.81;19.14;101214.89;1506917;94;21341;-91
2022/06/16 09:22:29;;;;;;;2.98;1.20;;;;;;;41.90;18.88;101213.55;1558780;90;21184;-89
2022/06/16 09:25:13;;;;;;;3.65;1.47;;;;;;;42.04;18.04;101206.55;1580377;90;21126;-88
2022/06/16 09:27:56;;;;;;;2.12;1.12;;;;;;;41.34;19.01;101209.34;1577452;90;21071;-86
2022/06/16 09:30:27;;;;;;;2.30;1.70;;;;;;;40.86;19.03;101209.35;1518086;94;21619;-86
2022/06/16 09:33:13;;;;;;;2.75;1.50;;;;;;;39.91;19.24;101213.30;1534527;93;22032;-89
2022/06/16 09:35:51;;;;;;;5.58;1.35;;;;;;;39.49;19.75;101211.23;1539467;93;21580;-92
2022/06/16 09:38:24;;;;;;;5.67;1.20;;;;;;;39.36;20.09;101206.17;1541973;93;21137;-88
2022/06/16 09:42:32;;;;;;;1.98;1.12;;;;;;;39.70;20.40;101211.86;1539389;93;21072;-89
2022/06/16 09:43:42;;;;;;;3.12;1.35;;;;;;;39.85;19.23;101211.64;1510653;94;21170;-87
2022/06/16 09:46:16;;;;;;;5.87;1.77;;;;;;;38.70;19.91;101217.28;1499299;95;21119;-88
2022/06/16 09:48:54;;;;;;;6.17;1.42;;;;;;;38.27;20.93;101214.84;1499786;95;21090;-86
2022/06/16 09:51:30;;;;;;;2.85;1.27;;;;;;;37.80;20.90;101222.05;1501773;95;21755;-87
2022/06/16 09:54:08;;;;;;;2.35;1.07;;;;;;;37.37;21.97;101221.44;1463170;95;21078;-87
2022/06/16 09:56:50;;;;;;;0.90;0.90;;;;;;;37.41;22.03;101217.15;1466107;97;21140;-87
2022/06/16 09:59:24;;;;;;;1.20;1.10;;;;;;;37.74;21.51;101220.97;1467021;97;21869;-89
2022/06/16 10:01:59;;;;;;;4.08;1.20;;;;;;;37.86;21.11;101216.09;1409436;101;21594;-88
2022/06/16 10:04:25;;;;;;;4.08;1.22;;;;;;;37.83;21.39;101216.14;1384192;102;21181;-90
2022/06/16 10:07:09;;;;;;;3.70;1.10;;;;;;;37.87;20.77;101206.41;1384210;103;21260;-88
2022/06/16 10:09:52;;;;;;;3.42;1.10;;;;;;;37.90;21.65;101207.57;1384395;103;21054;-89
2022/06/16 10:12:43;;;;;;;2.15;1.40;;;;;;;37.99;22.14;101209.83;1400363;100;21368;-89
2022/06/16 10:15:34;;;;;;;1.65;1.20;;;;;;;38.08;22.19;101202.38;1410754;100;21526;-87
2022/06/16 10:18:00;;;;;;;1.80;1.20;;;;;;;38.14;21.77;101204.84;1411050;101;21162;-91
2022/06/16 10:20:28;;;;;;;2.25;1.10;;;;;;;37.68;20.99;101195.36;1384266;103;21502;-89
2022/06/16 10:23:09;;;;;;;1.40;1.12;;;;;;;37.38;21.99;101193.48;1366376;105;21622;-87
2022/06/16 10:25:40;;;;;;;2.33;1.30;;;;;;;37.61;22.59;101201.11;1416159;100;21263;-87
2022/06/16 10:28:28;;;;;;;2.87;1.07;;;;;;;37.86;22.63;101193.58;1459471;96;21040;-88
2022/06/16 10:30:57;;;;;;;2.65;1.15;;;;;;;37.99;22.01;101196.55;1468891;97;21119;-88
2022/06/16 10:33:28;;;;;;;2.33;1.00;;;;;;;38.03;22.12;101207.72;1468815;97;21121;-89
2022/06/16 10:36:00;;;;;;;1.70;1.02;;;;;;;38.12;21.29;101196.06;1446791;99;21163;-89
2022/06/16 10:38:37;;;;;;;3.53;1.20;;;;;;;37.71;21.82;101205.75;1424155;100;21317;-88
2022/06/16 10:41:29;;;;;;;2.30;1.00;;;;;;;37.13;22.36;101195.98;1424029;99;21127;-87
2022/06/16 10:44:01;;;;;;;;;;;;;;;36.76;22.67;101198.56;1426471;99;21196;-88
2022/06/16 10:46:33;;;;;;;2.40;1.00;;;;;;;36.35;22.61;101198.78;1424323;99;21083;-89
2022/06/16 10:49:04;;;;;;;1.85;1.00;;;;;;;35.72;23.36;101189.37;1424180;99;21681;-89
2022/06/16 10:51:34;;;;;;;4.25;1.10;;;;;;;35.82;23.62;101188.42;1424209;100;21862;-86
2022/06/16 10:54:14;;;;;;;1.70;1.02;;;;;;;36.15;23.94;101192.45;1424247;99;21143;-90
2022/06/16 10:56:41;;;;;;;4.08;1.30;;;;;;;36.37;22.58;101177.48;1424219;99;21667;-86
2022/06/16 10:59:27;;;;;;;2.77;1.10;;;;;;;36.53;22.91;101181.10;1453985;97;21201;-87
2022/06/16 11:01:58;;;;;;;2.52;1.37;;;;;;;36.19;23.15;101176.95;1495811;95;21132;-89
2022/06/16 11:04:34;;;;;;;2.00;1.07;;;;;;;34.83;23.01;101186.80;1530588;93;22046;-89
2022/06/16 11:07:02;;;;;;;1.75;1.00;;;;;;;34.38;23.50;101183.88;1530547;93;21072;-90
2022/06/16 11:09:32;;;;;;;4.60;1.30;;;;;;;34.48;23.73;101181.63;1530476;93;21124;-89
2022/06/16 11:12:04;;;;;;;2.37;0.82;;;;;;;34.25;23.77;101179.98;1530641;93;21061;-90
2022/06/16 11:14:49;;;;;;;2.40;1.17;;;;;;;33.96;23.98;101180.09;1543027;93;21578;-89
2022/06/16 11:17:26;;;;;;;2.77;1.27;;;;;;;34.10;24.28;101171.66;1508798;95;21187;-89
2022/06/16 11:20:23;;;;;;;2.80;1.00;;;;;;;34.01;24.56;101183.08;1508764;94;21081;-88
2022/06/16 11:22:51;;;;;;;1.95;1.00;;;;;;;33.66;24.83;101189.00;1523754;93;21668;-86
2022/06/16 11:25:26;;;;;;;3.42;1.05;;;;;;;33.31;25.33;101185.06;1528862;93;21180;-88
2022/06/16 11:28:13;;;;;;;1.55;1.00;;;;;;;32.90;25.84;101187.47;1529389;93;21130;-87
2022/06/16 11:30:53;;;;;;;6.22;1.77;;;;;;;32.64;26.67;101189.44;1529867;93;21701;-89
2022/06/16 11:36:48;;;;;;;4.42;0.72;;;;;;;32.03;27.39;101187.88;1580287;90;21633;-86
2022/06/16 11:39:46;;;;;;;4.00;0.93;;;;;;;31.86;27.43;101192.16;1580253;90;21077;-87
2022/06/16 11:42:20;;;;;;;3.67;1.00;;;;;;;32.03;27.82;101187.06;1577533;90;21522;-89
2022/06/16 11:45:07;;;;;;;1.92;0.80;;;;;;;32.70;26.92;101191.23;1587629;90;21207;-87
2022/06/16 11:48:02;;;;;;;2.00;0.85;;;;;;;33.29;26.31;101185.27;1584412;90;21040;-88
2022/06/16 11:50:49;;;;;;;2.12;0.93;;;;;;;33.85;26.55;101183.53;1563619;91;21151;-89
2022/06/16 11:54:00;;;;;;;1.92;0.98;;;;;;;34.09;24.08;101176.25;1554480;92;21077;-90
2022/06/16 11:56:46;;;;;;;5.90;1.02;;;;;;;33.25;24.46;101174.89;1579103;90;21633;-89
2022/06/16 11:59:32;;;;;;;1.77;1.07;;;;;;;32.97;24.83;101172.91;1527816;93;21103;-89
2022/06/16 12:02:21;;;;;;;1.95;0.82;;;;;;;32.81;25.79;101175.30;1528810;93;21447;-90
2022/06/16 12:04:59;;;;;;;2.72;1.00;;;;;;;32.72;26.43;101177.69;1520804;93;21039;-90
2022/06/16 12:08:21;;;;;;;2.22;1.10;;;;;;;32.48;26.42;101182.84;1496307;95;21817;-89
2022/06/16 12:10:52;;;;;;;1.75;1.10;;;;;;;32.22;26.92;101179.77;1498876;95;21578;-88
2022/06/16 12:13:32;;;;;;;4.45;1.20;;;;;;;31.87;26.92;101175.63;1504143;95;22095;-88
2022/06/16 12:16:33;;;;;;;1.02;0.78;;;;;;;31.67;27.12;101175.13;1511256;94;21637;-89
2022/06/16 12:19:08;;;;;;;4.35;0.80;;;;;;;31.49;27.88;101179.02;1480957;95;21123;-90
2022/06/16 12:21:48;;;;;;;1.32;1.10;;;;;;;31.42;28.46;101179.78;1476121;95;21157;-87
2022/06/16 12:24:40;;;;;;;2.70;1.10;;;;;;;31.38;28.19;101176.16;1507561;93;21593;-89
2022/06/16 12:27:30;;;;;;;1.85;0.80;;;;;;;31.26;28.44;101179.23;1540003;93;22181;-88
2022/06/16 12:30:04;;;;;;;6.75;0.98;;;;;;;31.22;28.79;101179.22;1511122;90;21101;-87
2022/06/16 12:32:54;;;;;;;2.45;0.93;;;;;;;31.12;28.84;101177.13;1587015;89;21057;-87
2022/06/16 12:35:37;;;;;;;5.92;1.20;;;;;;;31.09;28.25;101173.73;1584092;89;21141;-88
2022/06/16 12:38:15;;;;;;;1.50;0.90;;;;;;;31.48;28.28;101169.07;1536867;93;21959;-86